Time;durP1;ratioP1;P1;durP2;ratioP2;P2;SDS_P1;SDS_P2;PMS_P1;PMS_P2;Temp;Humidity;BMP_temperature;BMP_pressure;BME280_temperature;BME280_humidity;BME280_pressure;Samples;Min_cycle;Max_cycle;Signal;HPM_P1;HPM_P2
2022/10/09 00:01:01;;;;;;;;;;;;;;;10.71;100.00;100881.53;5551061;32;34902;-68
2022/10/09 00:04:11;;;;;;;;;;;;;;;10.79;100.00;100881.63;5550890;32;34896;-68
2022/10/09 00:07:17;;;;;;;;;;;;;;;10.83;100.00;100877.66;5537516;32;34689;-68
2022/10/09 00:10:25;;;;;;;;;;;;;;;10.84;100.00;100872.16;5550949;32;34311;-67
2022/10/09 00:13:32;;;;;;;;;;;;;;;10.87;100.00;100865.72;5550770;32;34923;-68
2022/10/09 00:16:42;;;;;;;;;;;;;;;10.85;100.00;100870.34;5550585;32;34361;-68
2022/10/09 00:19:50;;;;;;;;;;;;;;;10.80;100.00;100873.47;5536404;32;33159;-68
2022/10/09 00:22:57;;;;;;;;;;;;;;;10.74;100.00;100868.81;5550533;32;34460;-68
2022/10/09 00:26:06;;;;;;;;;;;;;;;10.65;100.00;100867.06;5550528;32;34230;-67
2022/10/09 00:29:14;;;;;;;;;;;;;;;10.61;100.00;100867.53;5550574;32;34236;-68
2022/10/09 00:32:21;;;;;;;;;;;;;;;10.57;100.00;100867.03;5550484;32;34280;-68
2022/10/09 00:35:28;;;;;;;;;;;;;;;10.58;100.00;100870.53;5550393;32;34357;-68
2022/10/09 00:38:35;;;;;;;;;;;;;;;10.60;100.00;100869.38;5550326;32;34228;-67
2022/10/09 00:41:42;;;;;;;;;;;;;;;10.62;100.00;100855.94;5550403;32;35100;-68
2022/10/09 00:44:48;;;;;;;;;;;;;;;10.63;100.00;100850.50;5550260;32;35003;-68
2022/10/09 00:47:59;;;;;;;;;;;;;;;10.61;100.00;100844.50;5537315;32;34198;-68
2022/10/09 00:51:05;;;;;;;;;;;;;;;10.64;100.00;100844.22;5550145;32;34849;-68
2022/10/09 00:54:14;;;;;;;;;;;;;;;10.65;100.00;100847.69;5536171;32;34565;-68
2022/10/09 00:57:19;;;;;;;;;;;;;;;10.63;100.00;100839.88;5536290;32;35426;-69
2022/10/09 01:00:28;;;;;;;;;;;;;;;10.61;100.00;100831.22;5537120;32;34930;-68
2022/10/09 01:03:34;;;;;;;;;;;;;;;10.69;100.00;100835.78;5549951;32;34707;-68
2022/10/09 01:06:52;;;;;;;;;;;;;;;10.64;100.00;100828.28;5549802;32;34844;-68
2022/10/09 01:10:18;;;;;;;;;;;;;;;10.66;100.00;100828.09;5529928;32;33854;-68
2022/10/09 01:13:25;;;;;;;;;;;;;;;10.64;100.00;100822.16;5532013;32;35177;-68
2022/10/09 01:16:34;;;;;;;;;;;;;;;10.60;100.00;100826.91;5532987;32;34191;-68
2022/10/09 01:19:49;;;;;;;;;;;;;;;10.60;100.00;100823.47;5532882;32;34965;-68
2022/10/09 01:22:56;;;;;;;;;;;;;;;10.56;100.00;100820.25;5532892;32;34290;-68
2022/10/09 01:26:03;;;;;;;;;;;;;;;10.54;100.00;100827.56;5532766;32;34357;-68
2022/10/09 01:29:12;;;;;;;;;;;;;;;10.51;100.00;100833.16;5532790;32;34243;-68
2022/10/09 01:32:20;;;;;;;;;;;;;;;10.53;100.00;100833.84;5532813;32;34151;-68
2022/10/09 01:35:26;;;;;;;;;;;;;;;10.58;100.00;100828.91;5532765;32;34170;-67
2022/10/09 01:38:32;;;;;;;;;;;;;;;10.63;100.00;100825.78;5532671;32;34310;-69
2022/10/09 01:41:37;;;;;;;;;;;;;;;10.62;100.00;100824.94;5531909;32;34028;-68
2022/10/09 01:44:44;;;;;;;;;;;;;;;10.61;100.00;100819.78;5532647;32;34844;-68
2022/10/09 01:47:50;;;;;;;;;;;;;;;10.68;100.00;100823.50;5532702;32;34251;-69
2022/10/09 01:51:01;;;;;;;;;;;;;;;10.71;100.00;100823.16;5532712;32;34008;-69
2022/10/09 01:54:08;;;;;;;;;;;;;;;10.80;100.00;100825.69;5532835;32;34627;-69
2022/10/09 01:57:18;;;;;;;;;;;;;;;10.85;100.00;100828.72;5531651;32;34986;-69
2022/10/09 02:00:25;;;;;;;;;;;;;;;11.08;100.00;100834.31;5531848;32;34076;-69
2022/10/09 02:03:33;;;;;;;;;;;;;;;11.19;100.00;100833.16;5532463;32;34305;-69
2022/10/09 02:06:40;;;;;;;;;;;;;;;11.27;100.00;100836.72;5531370;32;33720;-69
2022/10/09 02:09:49;;;;;;;;;;;;;;;11.23;100.00;100829.22;5548423;32;35107;-69
2022/10/09 02:12:58;;;;;;;;;;;;;;;11.25;100.00;100832.53;5538748;32;34955;-68
2022/10/09 02:16:23;;;;;;;;;;;;;;;11.25;100.00;100836.03;5551770;32;34334;-69
2022/10/09 02:19:38;;;;;;;;;;;;;;;11.21;100.00;100847.97;5552098;32;34905;-68
2022/10/09 02:22:48;;;;;;;;;;;;;;;11.45;100.00;100838.41;5536743;32;34307;-68
2022/10/09 02:25:55;;;;;;;;;;;;;;;11.46;100.00;100848.88;5538013;32;34761;-69
2022/10/09 02:29:04;;;;;;;;;;;;;;;11.41;100.00;100848.53;5551583;32;35291;-68
2022/10/09 02:32:12;;;;;;;;;;;;;;;11.46;100.00;100853.34;5538593;32;34152;-68
2022/10/09 02:35:19;;;;;;;;;;;;;;;11.59;100.00;100862.53;5551603;32;34189;-69
2022/10/09 02:38:27;;;;;;;;;;;;;;;12.18;100.00;100861.47;5551423;32;34951;-69
2022/10/09 02:41:35;;;;;;;;;;;;;;;12.47;100.00;100862.78;5551435;32;34889;-68
2022/10/09 02:44:41;;;;;;;;;;;;;;;12.59;100.00;100864.06;5551321;32;34894;-69
2022/10/09 02:47:48;;;;;;;;;;;;;;;12.69;100.00;100869.22;5551377;32;34135;-69
2022/10/09 02:50:59;;;;;;;;;;;;;;;12.76;100.00;100871.03;5551468;32;34357;-69
2022/10/09 02:54:05;;;;;;;;;;;;;;;12.73;100.00;100876.69;5551448;32;34340;-69
2022/10/09 02:57:13;;;;;;;;;;;;;;;12.71;100.00;100872.56;5538375;32;34982;-69
2022/10/09 03:00:19;;;;;;;;;;;;;;;12.71;100.00;100881.37;5538050;32;34557;-69
2022/10/09 03:03:27;;;;;;;;;;;;;;;12.67;100.00;100885.38;5551456;32;34894;-69
2022/10/09 03:06:38;;;;;;;;;;;;;;;12.79;100.00;100886.66;5551215;32;34377;-68
2022/10/09 03:09:52;;;;;;;;;;;;;;;12.82;100.00;100889.00;5551171;32;34358;-68
2022/10/09 03:12:59;;;;;;;;;;;;;;;12.87;100.00;100884.00;5551350;32;34238;-68
2022/10/09 03:16:08;;;;;;;;;;;;;;;12.94;100.00;100878.81;5551254;32;34972;-68
2022/10/09 03:19:17;;;;;;;;;;;;;;;13.00;100.00;100886.97;5551215;32;34132;-68
2022/10/09 03:22:26;;;;;;;;;;;;;;;13.14;100.00;100880.13;5551281;32;34294;-68
2022/10/09 03:25:38;;;;;;;;;;;;;;;13.21;100.00;100880.28;5551310;32;34083;-68
2022/10/09 03:28:46;;;;;;;;;;;;;;;13.26;100.00;100888.56;5551298;32;34247;-68
2022/10/09 03:31:55;;;;;;;;;;;;;;;13.16;100.00;100888.78;5551304;32;34418;-69
2022/10/09 03:35:03;;;;;;;;;;;;;;;13.15;100.00;100897.78;5550562;32;34323;-68
2022/10/09 03:38:08;;;;;;;;;;;;;;;13.21;100.00;100897.09;5537620;32;34863;-68
2022/10/09 03:41:14;;;;;;;;;;;;;;;13.14;100.00;100895.25;5537008;32;34386;-68
2022/10/09 03:44:22;;;;;;;;;;;;;;;13.10;100.00;100902.75;5551001;32;34947;-68
2022/10/09 03:47:30;;;;;;;;;;;;;;;13.17;100.00;100900.28;5537684;32;34676;-68
2022/10/09 03:50:36;;;;;;;;;;;;;;;13.07;100.00;100909.22;5550972;32;34920;-68
2022/10/09 03:53:43;;;;;;;;;;;;;;;13.04;100.00;100904.25;5550927;32;34151;-68
2022/10/09 03:56:52;;;;;;;;;;;;;;;13.06;100.00;100896.09;5551256;32;34787;-67
2022/10/09 03:59:59;;;;;;;;;;;;;;;13.06;100.00;100906.75;5550879;32;34938;-68
2022/10/09 04:03:08;;;;;;;;;;;;;;;13.11;100.00;100916.91;5537014;32;33915;-68
2022/10/09 04:06:14;;;;;;;;;;;;;;;13.20;100.00;100929.22;5523441;32;888837;-68
2022/10/09 04:09:20;;;;;;;;;;;;;;;13.35;100.00;100920.34;5537310;32;34887;-67
2022/10/09 04:12:28;;;;;;;;;;;;;;;13.27;100.00;100909.69;5550764;32;34632;-68
2022/10/09 04:15:36;;;;;;;;;;;;;;;13.31;100.00;100905.69;5536935;32;32827;-69
2022/10/09 04:18:46;;;;;;;;;;;;;;;13.28;100.00;100915.88;5537151;32;34249;-68
2022/10/09 04:21:53;;;;;;;;;;;;;;;13.20;100.00;100905.25;5550701;32;34176;-68
2022/10/09 04:24:58;;;;;;;;;;;;;;;13.10;100.00;100904.56;5550542;32;34533;-68
2022/10/09 04:28:05;;;;;;;;;;;;;;;13.08;100.00;100926.03;5550535;32;34886;-69
2022/10/09 04:31:14;;;;;;;;;;;;;;;13.10;100.00;100916.06;5537297;32;34342;-69
2022/10/09 04:34:22;;;;;;;;;;;;;;;13.14;100.00;100920.06;5550224;32;35138;-69
2022/10/09 04:37:35;;;;;;;;;;;;;;;13.16;100.00;100931.41;5537701;32;34642;-69
2022/10/09 04:40:41;;;;;;;;;;;;;;;13.09;100.00;100922.38;5536560;32;34569;-67
2022/10/09 04:43:53;;;;;;;;;;;;;;;13.08;100.00;100928.72;5550208;32;34245;-68
2022/10/09 04:46:58;;;;;;;;;;;;;;;13.01;100.00;100917.09;5536101;32;34286;-68
2022/10/09 04:50:06;;;;;;;;;;;;;;;13.00;100.00;100932.25;5550202;32;34318;-68
2022/10/09 04:53:12;;;;;;;;;;;;;;;12.87;100.00;100939.09;5550168;32;34325;-68
2022/10/09 04:56:21;;;;;;;;;;;;;;;12.87;100.00;100952.41;5550078;32;34916;-67
2022/10/09 04:59:30;;;;;;;;;;;;;;;12.92;100.00;100969.56;5549966;32;34304;-67
2022/10/09 05:02:35;;;;;;;;;;;;;;;12.93;100.00;100978.34;5550398;32;34745;-69
2022/10/09 05:05:40;;;;;;;;;;;;;;;13.11;100.00;100980.84;5549676;32;34384;-69
2022/10/09 05:08:47;;;;;;;;;;;;;;;13.29;100.00;100973.50;5536611;32;34424;-66
2022/10/09 05:11:58;;;;;;;;;;;;;;;13.35;100.00;100962.16;5549740;32;34360;-69
2022/10/09 05:15:05;;;;;;;;;;;;;;;13.55;100.00;100965.25;5549662;32;34247;-69
2022/10/09 05:18:14;;;;;;;;;;;;;;;13.49;100.00;100966.75;5549472;32;34618;-66
2022/10/09 05:21:22;;;;;;;;;;;;;;;13.47;100.00;100964.25;5549790;32;34400;-68
2022/10/09 05:24:29;;;;;;;;;;;;;;;13.41;100.00;100954.28;5549353;32;34336;-66
2022/10/09 05:27:36;;;;;;;;;;;;;;;13.34;100.00;100982.63;5523123;32;35206;-67
2022/10/09 05:30:44;;;;;;;;;;;;;;;13.28;100.00;100983.31;5549411;32;35081;-68
2022/10/09 05:33:54;;;;;;;;;;;;;;;13.34;100.00;100998.63;5549201;32;34805;-67
2022/10/09 05:37:00;;;;;;;;;;;;;;;13.28;100.00;100988.63;5549046;32;35096;-69
2022/10/09 05:40:10;;;;;;;;;;;;;;;13.31;100.00;100987.50;5549173;32;34822;-68
2022/10/09 05:43:21;;;;;;;;;;;;;;;13.39;100.00;100984.78;5535059;32;33064;-69
2022/10/09 05:46:30;;;;;;;;;;;;;;;13.39;100.00;100995.44;5536200;32;34861;-68
2022/10/09 05:49:37;;;;;;;;;;;;;;;13.39;100.00;100992.78;5535211;32;34076;-67
2022/10/09 05:52:45;;;;;;;;;;;;;;;13.28;100.00;100998.47;5535531;32;35709;-69
2022/10/09 05:55:52;;;;;;;;;;;;;;;13.33;100.00;101006.78;5549163;32;35060;-67
2022/10/09 05:59:00;;;;;;;;;;;;;;;13.26;100.00;101009.31;5551762;32;34285;-69
2022/10/09 06:02:06;;;;;;;;;;;;;;;13.18;100.00;101013.81;5538087;32;34435;-68
2022/10/09 06:05:15;;;;;;;;;;;;;;;13.16;100.00;101014.00;5551737;32;34965;-66
2022/10/09 06:08:21;;;;;;;;;;;;;;;13.11;100.00;101007.47;5551508;32;35145;-68
2022/10/09 06:11:28;;;;;;;;;;;;;;;13.21;100.00;101016.16;5551536;32;34234;-68
2022/10/09 06:14:35;;;;;;;;;;;;;;;13.15;100.00;101017.66;5537528;32;34480;-69
2022/10/09 06:17:41;;;;;;;;;;;;;;;13.12;100.00;101025.16;5537933;32;34749;-68
2022/10/09 06:20:54;;;;;;;;;;;;;;;13.21;100.00;101030.31;5551479;32;34701;-70
2022/10/09 06:24:05;;;;;;;;;;;;;;;13.17;100.00;101038.81;5537597;32;34902;-68
2022/10/09 06:27:12;;;;;;;;;;;;;;;13.14;100.00;101036.47;5551682;32;34365;-68
2022/10/09 06:30:19;;;;;;;;;;;;;;;13.12;100.00;101046.47;5551511;32;34731;-67
2022/10/09 06:33:27;;;;;;;;;;;;;;;13.24;100.00;101048.59;5550727;32;34838;-68
2022/10/09 06:36:33;;;;;;;;;;;;;;;13.32;100.00;101055.75;5537412;32;34186;-68
2022/10/09 06:39:40;;;;;;;;;;;;;;;13.39;100.00;101052.25;5551256;32;34439;-68
2022/10/09 06:42:48;;;;;;;;;;;;;;;13.41;100.00;101057.37;5537382;32;34701;-68
2022/10/09 06:46:02;;;;;;;;;;;;;;;13.49;100.00;101057.41;5551344;32;34958;-69
2022/10/09 06:49:11;;;;;;;;;;;;;;;13.61;100.00;101058.69;5551354;32;34091;-67
2022/10/09 06:52:16;;;;;;;;;;;;;;;13.68;100.00;101070.34;5538113;32;34975;-67
2022/10/09 06:55:26;;;;;;;;;;;;;;;13.72;100.00;101076.16;5536979;32;35284;-69
2022/10/09 06:58:33;;;;;;;;;;;;;;;13.84;100.00;101077.47;5551291;32;34193;-68
2022/10/09 07:01:41;;;;;;;;;;;;;;;14.00;100.00;101088.06;5537415;32;34426;-68
2022/10/09 07:04:48;;;;;;;;;;;;;;;14.04;100.00;101086.69;5551364;32;34989;-69
2022/10/09 07:07:56;;;;;;;;;;;;;;;14.21;100.00;101082.13;5550119;32;34419;-68
2022/10/09 07:11:07;;;;;;;;;;;;;;;14.34;100.00;101077.91;5551439;32;34533;-68
2022/10/09 07:14:18;;;;;;;;;;;;;;;14.35;100.00;101084.91;5551178;32;34843;-67
2022/10/09 07:17:25;;;;;;;;;;;;;;;14.46;100.00;101088.22;5551088;32;34311;-67
2022/10/09 07:20:36;;;;;;;;;;;;;;;14.60;100.00;101090.97;5551044;32;34181;-68
2022/10/09 07:23:40;;;;;;;;;;;;;;;14.88;100.00;101088.59;5550968;32;34599;-67
2022/10/09 07:26:48;;;;;;;;;;;;;;;15.21;100.00;101090.00;5537382;32;34072;-68
2022/10/09 07:29:55;;;;;;;;;;;;;;;15.47;100.00;101096.78;5551043;32;34905;-67
2022/10/09 07:33:01;;;;;;;;;;;;;;;16.07;100.00;101102.81;5550684;32;34208;-67
2022/10/09 07:36:08;;;;;;;;;;;;;;;17.60;90.62;101100.72;5550670;32;34929;-69
2022/10/09 07:39:13;;;;;;;;;;;;;;;18.58;83.58;101095.88;5536943;32;34355;-68
2022/10/09 07:42:19;;;;;;;;;;;;;;;20.13;74.22;101096.25;5550841;32;35096;-68
2022/10/09 07:45:28;;;;;;;;;;;;;;;20.61;70.45;101093.16;5550907;32;34874;-68
2022/10/09 07:48:35;;;;;;;;;;;;;;;19.63;74.80;101105.91;5551342;32;34245;-68
2022/10/09 07:51:44;;;;;;;;;;;;;;;20.50;72.13;101107.31;5550778;32;34289;-68
2022/10/09 07:54:50;;;;;;;;;;;;;;;20.73;69.84;101110.28;5537069;32;35205;-69
2022/10/09 07:58:01;;;;;;;;;;;;;;;21.32;67.85;101114.47;5550928;32;34333;-69
2022/10/09 08:01:10;;;;;;;;;;;;;;;22.70;62.13;101112.97;5538144;32;34425;-69
2022/10/09 08:04:25;;;;;;;;;;;;;;;23.79;57.41;101118.75;5536467;32;34831;-69
2022/10/09 08:07:29;;;;;;;;;;;;;;;23.46;56.37;101117.69;5537317;32;35034;-69
2022/10/09 08:10:38;;;;;;;;;;;;;;;23.68;55.90;101118.72;5550715;32;34807;-68
2022/10/09 08:13:44;;;;;;;;;;;;;;;24.30;54.35;101122.59;5550438;32;34494;-69
2022/10/09 08:16:51;;;;;;;;;;;;;;;23.40;55.44;101116.69;5537517;32;34774;-68
2022/10/09 08:19:58;;;;;;;;;;;;;;;22.95;56.38;101125.31;5550480;32;34318;-69
2022/10/09 08:23:04;;;;;;;;;;;;;;;23.66;54.39;101131.69;5536557;32;34162;-69
2022/10/09 08:26:12;;;;;;;;;;;;;;;24.33;52.92;101134.81;5550514;32;34602;-69
2022/10/09 08:29:20;;;;;;;;;;;;;;;23.05;56.13;101137.44;5550293;32;34890;-69
2022/10/09 08:32:26;;;;;;;;;;;;;;;21.73;60.91;101135.50;5536535;32;35042;-69
2022/10/09 08:35:34;;;;;;;;;;;;;;;20.27;66.91;101132.88;5536018;32;33621;-69
2022/10/09 08:38:41;;;;;;;;;;;;;;;18.62;74.94;101134.75;5550234;32;34381;-69
2022/10/09 08:41:54;;;;;;;;;;;;;;;18.53;74.98;101135.97;5550067;32;34835;-69
2022/10/09 08:45:01;;;;;;;;;;;;;;;17.86;76.06;101135.81;5549834;32;34775;-69
2022/10/09 08:48:11;;;;;;;;;;;;;;;17.95;73.79;101133.78;5550047;32;34881;-69
2022/10/09 08:51:24;;;;;;;;;;;;;;;17.78;71.97;101133.25;5549884;32;34960;-68
2022/10/09 08:54:32;;;;;;;;;;;;;;;17.64;74.18;101143.06;5549545;32;34257;-68
2022/10/09 08:57:38;;;;;;;;;;;;;;;17.63;76.66;101143.25;5535048;32;33738;-68
2022/10/09 09:00:49;;;;;;;;;;;;;;;17.68;76.76;101140.81;5523602;32;33009;-67
2022/10/09 09:04:12;;;;;;;;;;;;;;;17.70;75.96;101139.63;5549554;32;34423;-68
2022/10/09 09:07:33;;;;;;;;;;;;;;;17.55;71.68;101151.44;5549568;32;34321;-68
2022/10/09 09:10:47;;;;;;;;;;;;;;;17.56;71.39;101147.72;5549363;32;34315;-68
2022/10/09 09:14:31;;;;;;;;;;;;;;;17.70;67.21;101154.88;5548319;32;34851;-68
2022/10/09 09:17:45;;;;;;;;;;;;;;;17.61;67.36;101167.62;5470590;32;34387;-67
2022/10/09 09:20:55;;;;;;;;;;;;;;;17.50;67.01;101160.06;5470943;32;34941;-67
2022/10/09 09:24:06;;;;;;;;;;;;;;;17.69;67.99;101161.25;5470507;32;35014;-68
2022/10/09 09:27:15;;;;;;;;;;;;;;;17.70;68.92;101166.44;5470619;32;34270;-67
2022/10/09 09:30:26;;;;;;;;;;;;;;;17.78;69.63;101168.16;5470670;32;34730;-67
2022/10/09 09:33:55;;;;;;;;;;;;;;;17.71;69.84;101162.75;5473233;32;34752;-68
2022/10/09 09:37:00;;;;;;;;;;;;;;;17.87;71.68;101166.13;5473190;32;34927;-67
2022/10/09 09:40:15;;;;;;;;;;;;;;;17.90;72.76;101180.00;5461211;32;34242;-67
2022/10/09 09:43:41;;;;;;;;;;;;;;;17.87;72.76;101175.03;5472996;32;34187;-68
2022/10/09 09:46:50;;;;;;;;;;;;;;;18.00;72.93;101176.97;5472957;32;34545;-68
2022/10/09 09:49:57;;;;;;;;;;;;;;;18.05;72.19;101169.16;5463811;32;34487;-68
2022/10/09 09:53:11;;;;;;;;;;;;;;;18.33;71.19;101169.09;5537696;32;34914;-67
2022/10/09 09:56:18;;;;;;;;;;;;;;;18.32;71.87;101178.19;5537727;32;34978;-68
2022/10/09 09:59:24;;;;;;;;;;;;;;;18.55;70.28;101168.81;5537355;32;35161;-67
2022/10/09 10:02:31;;;;;;;;;;;;;;;18.67;69.71;101169.91;5551724;32;34725;-68
2022/10/09 10:05:39;;;;;;;;;;;;;;;18.73;69.88;101178.22;5551819;32;34944;-68
2022/10/09 10:08:56;;;;;;;;;;;;;;;18.75;69.73;101181.50;5551633;32;35006;-67
2022/10/09 10:12:05;;;;;;;;;;;;;;;18.61;70.00;101180.62;5525577;32;36701;-68
2022/10/09 10:15:18;;;;;;;;;;;;;;;18.63;70.83;101176.72;5551385;32;34179;-68
2022/10/09 10:18:31;;;;;;;;;;;;;;;18.81;70.31;101184.22;5551761;32;34635;-67
2022/10/09 10:21:46;;;;;;;;;;;;;;;19.10;69.27;101178.50;5551463;32;35011;-69
2022/10/09 10:24:55;;;;;;;;;;;;;;;18.67;68.95;101182.53;5525376;32;34225;-68
2022/10/09 10:28:04;;;;;;;;;;;;;;;18.89;68.38;101180.50;5537560;32;34076;-68
2022/10/09 10:31:14;;;;;;;;;;;;;;;18.81;68.33;101178.84;5551642;32;34307;-67
2022/10/09 10:34:28;;;;;;;;;;;;;;;18.76;69.08;101183.16;5537752;32;33655;-68
2022/10/09 10:37:42;;;;;;;;;;;;;;;18.90;68.34;101176.81;5525573;32;32798;-68
2022/10/09 10:40:58;;;;;;;;;;;;;;;19.38;65.89;101172.13;5551278;32;34287;-68
2022/10/09 10:44:08;;;;;;;;;;;;;;;19.72;66.45;101177.34;5536410;32;34499;-67
2022/10/09 10:47:19;;;;;;;;;;;;;;;19.54;66.29;101185.22;5537649;32;34186;-67
2022/10/09 10:50:36;;;;;;;;;;;;;;;19.47;65.78;101184.38;5551273;32;34966;-67
2022/10/09 10:53:41;;;;;;;;;;;;;;;19.83;65.79;101187.47;5537013;32;34662;-68
2022/10/09 10:56:52;;;;;;;;;;;;;;;20.16;65.47;101183.91;5537657;32;34031;-67
2022/10/09 11:00:05;;;;;;;;;;;;;;;20.30;65.42;101183.69;5551092;32;34355;-67
2022/10/09 11:03:20;;;;;;;;;;;;;;;20.72;64.27;101171.47;5551209;32;34359;-67
2022/10/09 11:06:37;;;;;;;;;;;;;;;22.65;59.49;101178.59;5550929;32;34822;-68
2022/10/09 11:09:55;;;;;;;;;;;;;;;26.14;47.77;101179.84;5530856;32;34387;-68
2022/10/09 11:13:09;;;;;;;;;;;;;;;28.98;39.88;101183.88;5530536;32;34392;-68
2022/10/09 11:16:28;;;;;;;;;;;;;;;30.04;37.95;101172.97;5531836;32;34791;-69
2022/10/09 11:19:56;;;;;;;;;;;;;;;31.54;32.84;101170.78;5531180;32;34316;-69
2022/10/09 11:23:21;;;;;;;;;;;;;;;32.18;31.84;101171.28;5531100;32;34898;-69
2022/10/09 11:26:43;;;;;;;;;;;;;;;32.28;30.16;101171.16;5530517;32;34302;-69
2022/10/09 11:29:58;;;;;;;;;;;;;;;30.50;32.55;101161.88;5530504;32;34643;-69
2022/10/09 11:33:02;;;;;;;;;;;;;;;31.42;31.90;101163.72;5531573;32;34932;-69
2022/10/09 11:36:11;;;;;;;;;;;;;;;30.70;32.66;101160.94;5530841;32;34098;-68
2022/10/09 11:39:22;;;;;;;;;;;;;;;29.39;34.36;101167.56;5531676;32;34811;-68
2022/10/09 11:42:30;;;;;;;;;;;;;;;30.17;33.35;101161.41;5531641;32;34924;-68
2022/10/09 11:45:47;;;;;;;;;;;;;;;28.65;36.05;101155.09;5530536;32;34895;-69
2022/10/09 11:49:32;;;;;;;;;;;;;;;27.75;38.12;101148.06;5531497;32;34346;-69
2022/10/09 11:52:38;;;;;;;;;;;;;;;28.43;36.96;101151.72;5472286;32;34975;-68
2022/10/09 11:55:47;;;;;;;;;;;;;;;28.12;36.69;101145.34;5472001;32;34183;-69
2022/10/09 11:59:03;;;;;;;;;;;;;;;26.97;38.74;101146.03;5459298;32;35349;-69
2022/10/09 12:02:24;;;;;;;;;;;;;;;26.31;41.48;101142.56;5472311;32;34792;-69
2022/10/09 12:05:34;;;;;;;;;;;;;;;25.95;42.58;101150.19;5472328;32;34041;-68
2022/10/09 12:08:39;;;;;;;;;;;;;;;27.78;38.19;101147.56;5472180;32;34895;-69
2022/10/09 12:11:52;;;;;;;;;;;;;;;28.29;37.48;101136.94;5472140;32;34347;-69
2022/10/09 12:14:55;;;;;;;;;;;;;;;28.16;37.60;101138.25;5459475;32;35467;-69
2022/10/09 12:18:11;;;;;;;;;;;;;;;28.89;36.27;101131.69;5459043;32;34749;-69
2022/10/09 12:21:37;;;;;;;;;;;;;;;30.16;33.16;101135.16;5471865;32;34379;-70
2022/10/09 12:24:47;;;;;;;;;;;;;;;30.82;32.82;101143.06;5512304;32;34894;-69
2022/10/09 12:27:56;;;;;;;;;;;;;;;30.07;34.46;101127.78;5511191;32;34773;-69
2022/10/09 12:31:00;;;;;;;;;;;;;;;28.56;35.79;101129.41;5512253;32;35125;-69
2022/10/09 12:34:15;;;;;;;;;;;;;;;26.02;40.59;101131.00;5511572;32;34346;-69
2022/10/09 12:37:30;;;;;;;;;;;;;;;26.24;40.97;101128.31;5511331;32;34302;-68
2022/10/09 12:40:33;;;;;;;;;;;;;;;24.19;45.84;101131.56;5510189;32;35087;-69
2022/10/09 12:43:43;;;;;;;;;;;;;;;23.60;46.12;101124.50;5509852;32;34600;-68
2022/10/09 12:46:50;;;;;;;;;;;;;;;24.09;45.57;101115.88;5510245;32;34360;-67
2022/10/09 12:49:59;;;;;;;;;;;;;;;23.53;47.67;101111.06;5511333;32;34274;-68
2022/10/09 12:53:11;;;;;;;;;;;;;;;22.65;49.57;101110.97;5510449;32;34843;-69
2022/10/09 12:56:27;;;;;;;;;;;;;;;23.03;50.08;101107.09;5510872;32;35606;-68
2022/10/09 12:59:37;;;;;;;;;;;;;;;22.61;50.77;101103.53;5510385;32;33486;-67
2022/10/09 13:02:43;;;;;;;;;;;;;;;22.35;54.13;101093.88;5510183;32;34873;-67
2022/10/09 13:05:50;;;;;;;;;;;;;;;22.46;51.65;101093.12;5511415;32;34296;-68
2022/10/09 13:08:59;;;;;;;;;;;;;;;22.26;52.38;101089.84;5526896;32;34226;-69
2022/10/09 13:12:21;;;;;;;;;;;;;;;22.27;53.28;101092.31;5538024;32;34284;-68
2022/10/09 13:15:27;;;;;;;;;;;;;;;22.79;52.12;101090.81;5538466;32;34333;-68
2022/10/09 13:18:33;;;;;;;;;;;;;;;22.12;52.84;101086.50;5552160;32;34852;-67
2022/10/09 13:21:38;;;;;;;;;;;;;;;22.71;51.02;101080.31;5538069;32;32797;-67
2022/10/09 13:24:41;;;;;;;;;;;;;;;22.61;51.54;101077.28;5552094;32;34329;-67
2022/10/09 13:27:45;;;;;;;;;;;;;;;22.71;50.56;101077.59;5551860;32;34317;-67
2022/10/09 13:30:51;;;;;;;;;;;;;;;22.74;53.32;101081.75;5551870;32;35024;-68
2022/10/09 13:33:59;;;;;;;;;;;;;;;23.20;49.32;101079.12;5525846;32;35473;-67
2022/10/09 13:37:06;;;;;;;;;;;;;;;23.60;48.66;101073.03;5537868;32;34541;-68
2022/10/09 13:40:14;;;;;;;;;;;;;;;23.07;50.47;101087.47;5551762;32;34889;-68
2022/10/09 13:43:21;;;;;;;;;;;;;;;23.14;51.47;101074.63;5538355;32;34913;-67
2022/10/09 13:46:26;;;;;;;;;;;;;;;22.79;51.10;101076.47;5538064;32;35566;-67
2022/10/09 13:49:30;;;;;;;;;;;;;;;22.52;53.33;101076.78;5538146;32;35421;-68
2022/10/09 13:52:36;;;;;;;;;;;;;;;22.21;53.34;101073.50;5551660;32;34174;-67
2022/10/09 13:55:46;;;;;;;;;;;;;;;21.93;54.96;101068.59;5538861;32;34490;-68
2022/10/09 13:58:50;;;;;;;;;;;;;;;21.33;57.02;101064.84;5552049;32;34239;-67
2022/10/09 14:01:55;;;;;;;;;;;;;;;20.86;56.82;101066.25;5537266;32;34665;-67
2022/10/09 14:05:01;;;;;;;;;;;;;;;20.55;59.22;101064.37;5551400;32;35643;-67
2022/10/09 14:08:09;;;;;;;;;;;;;;;20.40;60.29;101056.56;5551315;32;34378;-67
2022/10/09 14:11:14;;;;;;;;;;;;;;;20.25;60.14;101062.19;5551705;32;34274;-67
2022/10/09 14:14:21;;;;;;;;;;;;;;;20.00;60.36;101061.25;5551407;32;34922;-67
2022/10/09 14:17:26;;;;;;;;;;;;;;;19.92;61.45;101062.34;5537384;32;34832;-67
2022/10/09 14:20:31;;;;;;;;;;;;;;;19.79;61.98;101061.56;5551569;32;34923;-67
2022/10/09 14:23:37;;;;;;;;;;;;;;;19.54;66.68;101061.41;5551433;32;34307;-67
2022/10/09 14:26:43;;;;;;;;;;;;;;;19.33;64.48;101061.59;5538190;32;34228;-68
2022/10/09 14:29:56;;;;;;;;;;;;;;;19.26;64.79;101058.94;5551798;32;34634;-68
2022/10/09 14:33:03;;;;;;;;;;;;;;;19.08;68.10;101066.78;5551460;32;34639;-68
2022/10/09 14:36:11;;;;;;;;;;;;;;;19.03;67.38;101070.09;5550965;32;34460;-68
2022/10/09 14:39:17;;;;;;;;;;;;;;;19.03;66.74;101063.87;5551175;32;34254;-68
2022/10/09 14:42:23;;;;;;;;;;;;;;;19.03;66.98;101064.69;5551149;32;34448;-66
2022/10/09 14:45:28;;;;;;;;;;;;;;;19.17;67.02;101062.84;5537412;32;32349;-66
2022/10/09 14:48:39;;;;;;;;;;;;;;;19.15;66.75;101064.09;5551037;32;34212;-67
2022/10/09 14:51:45;;;;;;;;;;;;;;;19.02;66.65;101067.63;5537203;32;35479;-67
2022/10/09 14:54:52;;;;;;;;;;;;;;;18.98;66.74;101061.81;5551152;32;34614;-67
2022/10/09 14:57:58;;;;;;;;;;;;;;;18.87;68.16;101059.75;5537472;32;35245;-68
2022/10/09 15:01:06;;;;;;;;;;;;;;;18.70;68.17;101061.16;5550820;32;34383;-67
2022/10/09 15:04:14;;;;;;;;;;;;;;;18.47;69.97;101066.03;5537291;32;34062;-66
2022/10/09 15:07:20;;;;;;;;;;;;;;;18.41;70.41;101064.16;5550624;32;34949;-66
2022/10/09 15:10:30;;;;;;;;;;;;;;;18.35;71.46;101065.78;5550915;32;34945;-67
2022/10/09 15:13:37;;;;;;;;;;;;;;;18.31;71.08;101067.22;5512314;32;34837;-67
2022/10/09 15:16:43;;;;;;;;;;;;;;;18.19;72.55;101075.03;5524420;32;35499;-67
2022/10/09 15:19:52;;;;;;;;;;;;;;;18.02;74.11;101070.19;5536616;32;33167;-67
2022/10/09 15:22:57;;;;;;;;;;;;;;;17.97;76.14;101072.66;5536315;32;34756;-67
2022/10/09 15:26:04;;;;;;;;;;;;;;;17.77;77.34;101072.53;5550873;32;34880;-68
2022/10/09 15:29:08;;;;;;;;;;;;;;;17.66;76.96;101070.44;5550433;32;34925;-67
2022/10/09 15:32:14;;;;;;;;;;;;;;;17.55;77.89;101074.47;5550937;32;34268;-67
2022/10/09 15:35:19;;;;;;;;;;;;;;;17.49;78.85;101079.75;5550698;32;34889;-67
2022/10/09 15:38:24;;;;;;;;;;;;;;;17.36;79.76;101075.97;5537030;32;34984;-68
2022/10/09 15:41:32;;;;;;;;;;;;;;;17.35;82.89;101084.22;5536647;32;33790;-68
2022/10/09 15:44:37;;;;;;;;;;;;;;;17.13;82.87;101080.75;5550215;32;34242;-67
2022/10/09 15:47:43;;;;;;;;;;;;;;;17.07;82.88;101081.50;5550556;32;33731;-67
2022/10/09 15:50:56;;;;;;;;;;;;;;;16.94;83.70;101092.94;5536356;32;35256;-68
2022/10/09 15:54:01;;;;;;;;;;;;;;;16.91;83.12;101081.75;5536318;32;34262;-67
2022/10/09 15:57:07;;;;;;;;;;;;;;;16.98;83.02;101089.88;5550543;32;34991;-67
2022/10/09 16:00:13;;;;;;;;;;;;;;;16.99;85.11;101083.50;5550590;32;34669;-67
2022/10/09 16:03:20;;;;;;;;;;;;;;;16.91;84.16;101095.16;5550394;32;34623;-67
2022/10/09 16:06:25;;;;;;;;;;;;;;;17.01;81.53;101089.47;5523952;32;34353;-68